sensor_id;sensor_type;location;lat;lon;timestamp;P1;durP1;ratioP1;P2;durP2;ratioP2
40162;SDS011;25881;47.462;19.304;2023-03-23T00:02:01;16.40;;;10.53;;
40162;SDS011;25881;47.462;19.304;2023-03-23T00:04:26;15.13;;;10.27;;
40162;SDS011;25881;47.462;19.304;2023-03-23T00:06:54;18.15;;;11.32;;
40162;SDS011;25881;47.462;19.304;2023-03-23T00:09:19;13.90;;;10.10;;
40162;SDS011;25881;47.462;19.304;2023-03-23T00:11:48;18.08;;;10.30;;
40162;SDS011;25881;47.462;19.304;2023-03-23T00:14:14;17.83;;;11.25;;
40162;SDS011;25881;47.462;19.304;2023-03-23T00:16:39;17.47;;;9.80;;
40162;SDS011;25881;47.462;19.304;2023-03-23T00:19:06;17.98;;;10.68;;
40162;SDS011;25881;47.462;19.304;2023-03-23T00:21:33;17.98;;;11.20;;
40162;SDS011;25881;47.462;19.304;2023-03-23T00:24:03;18.10;;;10.68;;
40162;SDS011;25881;47.462;19.304;2023-03-23T00:26:29;16.73;;;11.55;;
40162;SDS011;25881;47.462;19.304;2023-03-23T00:28:58;18.85;;;11.13;;
40162;SDS011;25881;47.462;19.304;2023-03-23T00:31:25;21.67;;;11.57;;
40162;SDS011;25881;47.462;19.304;2023-03-23T00:34:01;17.15;;;11.43;;
40162;SDS011;25881;47.462;19.304;2023-03-23T00:36:29;18.23;;;12.27;;
40162;SDS011;25881;47.462;19.304;2023-03-23T00:38:54;19.40;;;12.15;;
40162;SDS011;25881;47.462;19.304;2023-03-23T00:41:22;17.08;;;12.07;;
40162;SDS011;25881;47.462;19.304;2023-03-23T00:43:48;17.93;;;11.77;;
40162;SDS011;25881;47.462;19.304;2023-03-23T00:46:13;21.05;;;12.98;;
40162;SDS011;25881;47.462;19.304;2023-03-23T00:48:39;18.92;;;12.57;;
40162;SDS011;25881;47.462;19.304;2023-03-23T00:51:09;20.23;;;13.65;;
40162;SDS011;25881;47.462;19.304;2023-03-23T00:53:37;19.30;;;12.18;;
40162;SDS011;25881;47.462;19.304;2023-03-23T00:56:02;22.73;;;13.57;;
40162;SDS011;25881;47.462;19.304;2023-03-23T00:58:27;22.85;;;13.68;;
40162;SDS011;25881;47.462;19.304;2023-03-23T01:00:53;22.63;;;13.53;;
40162;SDS011;25881;47.462;19.304;2023-03-23T01:03:18;21.15;;;13.68;;
40162;SDS011;25881;47.462;19.304;2023-03-23T01:05:44;22.38;;;14.25;;
40162;SDS011;25881;47.462;19.304;2023-03-23T01:08:12;22.00;;;12.83;;
40162;SDS011;25881;47.462;19.304;2023-03-23T01:10:37;22.55;;;14.23;;
40162;SDS011;25881;47.462;19.304;2023-03-23T01:13:03;20.83;;;13.88;;
40162;SDS011;25881;47.462;19.304;2023-03-23T01:15:29;17.30;;;12.32;;
40162;SDS011;25881;47.462;19.304;2023-03-23T01:17:55;18.90;;;13.20;;
40162;SDS011;25881;47.462;19.304;2023-03-23T01:20:20;18.73;;;12.02;;
40162;SDS011;25881;47.462;19.304;2023-03-23T01:22:46;20.88;;;12.43;;
40162;SDS011;25881;47.462;19.304;2023-03-23T01:25:11;19.70;;;12.30;;
40162;SDS011;25881;47.462;19.304;2023-03-23T01:27:37;19.45;;;12.48;;
40162;SDS011;25881;47.462;19.304;2023-03-23T01:30:03;23.53;;;12.90;;
40162;SDS011;25881;47.462;19.304;2023-03-23T01:32:28;22.35;;;12.80;;
40162;SDS011;25881;47.462;19.304;2023-03-23T01:34:54;20.95;;;12.70;;
40162;SDS011;25881;47.462;19.304;2023-03-23T01:37:19;18.98;;;12.30;;
40162;SDS011;25881;47.462;19.304;2023-03-23T01:39:45;20.10;;;13.65;;
40162;SDS011;25881;47.462;19.304;2023-03-23T01:42:10;18.83;;;12.10;;
40162;SDS011;25881;47.462;19.304;2023-03-23T01:47:01;21.67;;;12.77;;
40162;SDS011;25881;47.462;19.304;2023-03-23T01:49:27;21.83;;;11.98;;
40162;SDS011;25881;47.462;19.304;2023-03-23T01:52:02;19.27;;;12.18;;
40162;SDS011;25881;47.462;19.304;2023-03-23T01:54:29;21.38;;;13.07;;
40162;SDS011;25881;47.462;19.304;2023-03-23T01:57:06;19.33;;;12.45;;
40162;SDS011;25881;47.462;19.304;2023-03-23T01:59:32;20.70;;;13.05;;
40162;SDS011;25881;47.462;19.304;2023-03-23T02:01:58;19.15;;;12.57;;
40162;SDS011;25881;47.462;19.304;2023-03-23T02:04:25;23.10;;;13.25;;
40162;SDS011;25881;47.462;19.304;2023-03-23T02:06:51;22.05;;;12.50;;
40162;SDS011;25881;47.462;19.304;2023-03-23T02:09:16;18.40;;;11.52;;
40162;SDS011;25881;47.462;19.304;2023-03-23T02:11:42;19.25;;;12.25;;
40162;SDS011;25881;47.462;19.304;2023-03-23T02:14:08;19.33;;;11.63;;
40162;SDS011;25881;47.462;19.304;2023-03-23T02:16:54;19.33;;;10.48;;
40162;SDS011;25881;47.462;19.304;2023-03-23T02:26:50;21.33;;;12.30;;
40162;SDS011;25881;47.462;19.304;2023-03-23T02:34:32;19.67;;;11.35;;
40162;SDS011;25881;47.462;19.304;2023-03-23T02:37:03;20.08;;;11.52;;
40162;SDS011;25881;47.462;19.304;2023-03-23T02:41:58;19.77;;;10.57;;
40162;SDS011;25881;47.462;19.304;2023-03-23T02:44:26;18.52;;;10.98;;
40162;SDS011;25881;47.462;19.304;2023-03-23T02:46:55;18.33;;;11.52;;
40162;SDS011;25881;47.462;19.304;2023-03-23T02:49:21;19.35;;;11.52;;
40162;SDS011;25881;47.462;19.304;2023-03-23T02:51:50;17.77;;;11.02;;
40162;SDS011;25881;47.462;19.304;2023-03-23T02:54:16;18.23;;;10.98;;
40162;SDS011;25881;47.462;19.304;2023-03-23T02:56:43;17.90;;;10.52;;
40162;SDS011;25881;47.462;19.304;2023-03-23T02:59:09;14.98;;;9.75;;
40162;SDS011;25881;47.462;19.304;2023-03-23T03:04:03;19.98;;;10.75;;
40162;SDS011;25881;47.462;19.304;2023-03-23T03:08:57;15.25;;;10.30;;
40162;SDS011;25881;47.462;19.304;2023-03-23T03:11:25;15.95;;;11.05;;
40162;SDS011;25881;47.462;19.304;2023-03-23T03:13:55;20.20;;;11.82;;
40162;SDS011;25881;47.462;19.304;2023-03-23T03:16:28;15.63;;;10.45;;
40162;SDS011;25881;47.462;19.304;2023-03-23T03:18:56;17.27;;;10.25;;
40162;SDS011;25881;47.462;19.304;2023-03-23T03:23:50;17.45;;;9.85;;
40162;SDS011;25881;47.462;19.304;2023-03-23T03:26:17;14.63;;;10.02;;
40162;SDS011;25881;47.462;19.304;2023-03-23T03:31:12;16.98;;;9.80;;
40162;SDS011;25881;47.462;19.304;2023-03-23T03:33:38;15.25;;;10.07;;
40162;SDS011;25881;47.462;19.304;2023-03-23T03:36:04;12.15;;;9.27;;
40162;SDS011;25881;47.462;19.304;2023-03-23T03:38:40;16.17;;;11.10;;
40162;SDS011;25881;47.462;19.304;2023-03-23T03:41:06;20.42;;;10.55;;
40162;SDS011;25881;47.462;19.304;2023-03-23T03:43:31;13.60;;;10.47;;
40162;SDS011;25881;47.462;19.304;2023-03-23T03:45:56;15.37;;;11.07;;
40162;SDS011;25881;47.462;19.304;2023-03-23T03:48:21;16.47;;;10.67;;
40162;SDS011;25881;47.462;19.304;2023-03-23T03:50:47;16.07;;;10.17;;
40162;SDS011;25881;47.462;19.304;2023-03-23T03:53:12;12.87;;;9.10;;
40162;SDS011;25881;47.462;19.304;2023-03-23T03:55:37;12.35;;;8.68;;
40162;SDS011;25881;47.462;19.304;2023-03-23T03:58:04;13.45;;;8.88;;
40162;SDS011;25881;47.462;19.304;2023-03-23T04:00:29;12.43;;;8.25;;
40162;SDS011;25881;47.462;19.304;2023-03-23T04:02:55;11.10;;;7.53;;
40162;SDS011;25881;47.462;19.304;2023-03-23T04:05:21;11.35;;;7.40;;
40162;SDS011;25881;47.462;19.304;2023-03-23T04:07:47;14.75;;;8.07;;
40162;SDS011;25881;47.462;19.304;2023-03-23T04:10:16;12.70;;;7.90;;
40162;SDS011;25881;47.462;19.304;2023-03-23T04:12:44;14.32;;;8.57;;
40162;SDS011;25881;47.462;19.304;2023-03-23T04:15:10;12.02;;;8.23;;
40162;SDS011;25881;47.462;19.304;2023-03-23T04:17:35;13.68;;;8.05;;
40162;SDS011;25881;47.462;19.304;2023-03-23T04:20:01;18.58;;;8.38;;
40162;SDS011;25881;47.462;19.304;2023-03-23T04:22:31;12.95;;;7.97;;
40162;SDS011;25881;47.462;19.304;2023-03-23T04:24:57;14.20;;;8.45;;
40162;SDS011;25881;47.462;19.304;2023-03-23T04:27:24;11.55;;;7.43;;
40162;SDS011;25881;47.462;19.304;2023-03-23T04:29:49;17.42;;;8.52;;
40162;SDS011;25881;47.462;19.304;2023-03-23T04:32:14;14.77;;;7.57;;
40162;SDS011;25881;47.462;19.304;2023-03-23T04:34:42;12.03;;;8.43;;
40162;SDS011;25881;47.462;19.304;2023-03-23T04:37:07;14.70;;;8.70;;
40162;SDS011;25881;47.462;19.304;2023-03-23T04:39:33;14.55;;;8.80;;
40162;SDS011;25881;47.462;19.304;2023-03-23T04:41:58;14.07;;;8.63;;
40162;SDS011;25881;47.462;19.304;2023-03-23T04:44:26;12.35;;;7.45;;
40162;SDS011;25881;47.462;19.304;2023-03-23T04:46:52;11.95;;;7.90;;
40162;SDS011;25881;47.462;19.304;2023-03-23T04:49:19;12.10;;;8.20;;
40162;SDS011;25881;47.462;19.304;2023-03-23T04:51:46;14.23;;;10.13;;
40162;SDS011;25881;47.462;19.304;2023-03-23T04:54:11;20.85;;;14.40;;
40162;SDS011;25881;47.462;19.304;2023-03-23T04:56:37;13.77;;;10.55;;
40162;SDS011;25881;47.462;19.304;2023-03-23T04:59:03;12.70;;;8.57;;
40162;SDS011;25881;47.462;19.304;2023-03-23T05:01:28;16.90;;;7.87;;
40162;SDS011;25881;47.462;19.304;2023-03-23T05:03:54;10.45;;;7.13;;
40162;SDS011;25881;47.462;19.304;2023-03-23T05:06:19;17.13;;;8.20;;
40162;SDS011;25881;47.462;19.304;2023-03-23T05:08:44;14.48;;;8.02;;
40162;SDS011;25881;47.462;19.304;2023-03-23T05:11:10;15.73;;;7.43;;
40162;SDS011;25881;47.462;19.304;2023-03-23T05:13:35;15.45;;;13.05;;
40162;SDS011;25881;47.462;19.304;2023-03-23T05:16:04;19.88;;;16.65;;
40162;SDS011;25881;47.462;19.304;2023-03-23T05:18:30;18.08;;;14.73;;
40162;SDS011;25881;47.462;19.304;2023-03-23T05:20:59;18.13;;;13.25;;
40162;SDS011;25881;47.462;19.304;2023-03-23T05:23:24;16.30;;;11.40;;
40162;SDS011;25881;47.462;19.304;2023-03-23T05:25:54;12.95;;;8.18;;
40162;SDS011;25881;47.462;19.304;2023-03-23T05:28:19;14.00;;;8.98;;
40162;SDS011;25881;47.462;19.304;2023-03-23T05:30:56;13.90;;;7.70;;
40162;SDS011;25881;47.462;19.304;2023-03-23T05:33:22;14.75;;;8.63;;
40162;SDS011;25881;47.462;19.304;2023-03-23T05:35:47;21.13;;;9.45;;
40162;SDS011;25881;47.462;19.304;2023-03-23T05:38:13;12.38;;;8.77;;
40162;SDS011;25881;47.462;19.304;2023-03-23T05:40:39;15.10;;;9.57;;
40162;SDS011;25881;47.462;19.304;2023-03-23T05:43:06;19.90;;;12.70;;
40162;SDS011;25881;47.462;19.304;2023-03-23T05:45:31;18.15;;;12.45;;
40162;SDS011;25881;47.462;19.304;2023-03-23T05:47:57;15.30;;;11.93;;
40162;SDS011;25881;47.462;19.304;2023-03-23T05:50:23;15.25;;;10.70;;
40162;SDS011;25881;47.462;19.304;2023-03-23T05:52:48;16.88;;;9.38;;
40162;SDS011;25881;47.462;19.304;2023-03-23T05:55:13;12.02;;;8.57;;
40162;SDS011;25881;47.462;19.304;2023-03-23T05:57:40;13.85;;;8.68;;
40162;SDS011;25881;47.462;19.304;2023-03-23T06:00:05;16.70;;;9.43;;
40162;SDS011;25881;47.462;19.304;2023-03-23T06:02:40;12.32;;;8.68;;
40162;SDS011;25881;47.462;19.304;2023-03-23T06:05:09;14.68;;;9.20;;
40162;SDS011;25881;47.462;19.304;2023-03-23T06:07:34;20.35;;;8.75;;
40162;SDS011;25881;47.462;19.304;2023-03-23T06:10:00;12.95;;;8.00;;
40162;SDS011;25881;47.462;19.304;2023-03-23T06:12:26;11.52;;;8.02;;
40162;SDS011;25881;47.462;19.304;2023-03-23T06:14:51;12.25;;;7.78;;
40162;SDS011;25881;47.462;19.304;2023-03-23T06:17:16;12.43;;;8.63;;
40162;SDS011;25881;47.462;19.304;2023-03-23T06:19:42;13.38;;;8.98;;
40162;SDS011;25881;47.462;19.304;2023-03-23T06:22:07;25.02;;;9.93;;
40162;SDS011;25881;47.462;19.304;2023-03-23T06:24:33;18.70;;;10.40;;
40162;SDS011;25881;47.462;19.304;2023-03-23T06:27:00;16.83;;;9.70;;
40162;SDS011;25881;47.462;19.304;2023-03-23T06:29:26;19.02;;;10.13;;
40162;SDS011;25881;47.462;19.304;2023-03-23T06:31:52;22.38;;;10.85;;
40162;SDS011;25881;47.462;19.304;2023-03-23T06:34:19;16.77;;;10.93;;
40162;SDS011;25881;47.462;19.304;2023-03-23T06:36:45;20.10;;;11.40;;
40162;SDS011;25881;47.462;19.304;2023-03-23T06:39:10;18.97;;;10.80;;
40162;SDS011;25881;47.462;19.304;2023-03-23T06:41:36;19.75;;;12.15;;
40162;SDS011;25881;47.462;19.304;2023-03-23T06:44:01;19.30;;;10.85;;
40162;SDS011;25881;47.462;19.304;2023-03-23T06:46:27;19.02;;;11.90;;
40162;SDS011;25881;47.462;19.304;2023-03-23T06:48:52;15.95;;;11.48;;
40162;SDS011;25881;47.462;19.304;2023-03-23T06:51:17;19.27;;;11.02;;
40162;SDS011;25881;47.462;19.304;2023-03-23T06:53:43;16.80;;;11.00;;
40162;SDS011;25881;47.462;19.304;2023-03-23T06:56:08;18.17;;;10.70;;
40162;SDS011;25881;47.462;19.304;2023-03-23T06:58:33;17.83;;;11.47;;
40162;SDS011;25881;47.462;19.304;2023-03-23T07:00:59;20.15;;;12.63;;
40162;SDS011;25881;47.462;19.304;2023-03-23T07:03:25;19.42;;;11.32;;
40162;SDS011;25881;47.462;19.304;2023-03-23T07:05:52;22.55;;;11.40;;
40162;SDS011;25881;47.462;19.304;2023-03-23T07:08:17;24.17;;;11.53;;
40162;SDS011;25881;47.462;19.304;2023-03-23T07:10:43;12.87;;;10.37;;
40162;SDS011;25881;47.462;19.304;2023-03-23T07:13:08;14.88;;;11.00;;
40162;SDS011;25881;47.462;19.304;2023-03-23T07:15:34;18.08;;;11.05;;
40162;SDS011;25881;47.462;19.304;2023-03-23T07:17:59;14.53;;;10.87;;
40162;SDS011;25881;47.462;19.304;2023-03-23T07:20:25;18.38;;;11.73;;
40162;SDS011;25881;47.462;19.304;2023-03-23T07:22:50;16.30;;;10.67;;
40162;SDS011;25881;47.462;19.304;2023-03-23T07:25:16;16.42;;;11.45;;
40162;SDS011;25881;47.462;19.304;2023-03-23T07:27:41;19.35;;;11.20;;
40162;SDS011;25881;47.462;19.304;2023-03-23T07:30:09;18.40;;;10.30;;
40162;SDS011;25881;47.462;19.304;2023-03-23T07:32:34;15.85;;;11.77;;
40162;SDS011;25881;47.462;19.304;2023-03-23T07:34:59;18.23;;;11.20;;
40162;SDS011;25881;47.462;19.304;2023-03-23T07:37:25;22.33;;;11.80;;
40162;SDS011;25881;47.462;19.304;2023-03-23T07:39:50;14.93;;;11.20;;
40162;SDS011;25881;47.462;19.304;2023-03-23T07:42:15;15.10;;;11.13;;
40162;SDS011;25881;47.462;19.304;2023-03-23T07:44:41;17.20;;;11.27;;
40162;SDS011;25881;47.462;19.304;2023-03-23T07:47:06;15.47;;;11.13;;
40162;SDS011;25881;47.462;19.304;2023-03-23T07:49:32;14.40;;;10.65;;
40162;SDS011;25881;47.462;19.304;2023-03-23T07:51:57;16.58;;;11.43;;
40162;SDS011;25881;47.462;19.304;2023-03-23T07:54:23;17.75;;;11.57;;
40162;SDS011;25881;47.462;19.304;2023-03-23T07:56:48;16.95;;;11.95;;
40162;SDS011;25881;47.462;19.304;2023-03-23T07:59:14;19.90;;;11.53;;
40162;SDS011;25881;47.462;19.304;2023-03-23T08:01:40;15.75;;;10.63;;
40162;SDS011;25881;47.462;19.304;2023-03-23T08:04:05;16.88;;;11.93;;
40162;SDS011;25881;47.462;19.304;2023-03-23T08:06:34;28.80;;;11.37;;
40162;SDS011;25881;47.462;19.304;2023-03-23T08:09:00;17.00;;;11.80;;
40162;SDS011;25881;47.462;19.304;2023-03-23T08:11:25;15.98;;;10.80;;
40162;SDS011;25881;47.462;19.304;2023-03-23T08:13:51;17.30;;;10.25;;
40162;SDS011;25881;47.462;19.304;2023-03-23T08:16:16;14.43;;;10.93;;
40162;SDS011;25881;47.462;19.304;2023-03-23T08:18:41;21.03;;;10.93;;
40162;SDS011;25881;47.462;19.304;2023-03-23T08:21:07;19.52;;;11.70;;
40162;SDS011;25881;47.462;19.304;2023-03-23T08:23:35;20.25;;;12.23;;
40162;SDS011;25881;47.462;19.304;2023-03-23T08:26:04;15.85;;;10.70;;
40162;SDS011;25881;47.462;19.304;2023-03-23T08:28:32;17.80;;;10.75;;
40162;SDS011;25881;47.462;19.304;2023-03-23T08:30:57;17.10;;;11.27;;
40162;SDS011;25881;47.462;19.304;2023-03-23T08:33:22;14.47;;;10.90;;
40162;SDS011;25881;47.462;19.304;2023-03-23T08:35:54;15.83;;;11.50;;
40162;SDS011;25881;47.462;19.304;2023-03-23T08:38:20;18.30;;;11.45;;
40162;SDS011;25881;47.462;19.304;2023-03-23T08:40:46;17.55;;;11.73;;
40162;SDS011;25881;47.462;19.304;2023-03-23T08:43:12;15.25;;;11.63;;
40162;SDS011;25881;47.462;19.304;2023-03-23T08:45:37;24.93;;;12.73;;
40162;SDS011;25881;47.462;19.304;2023-03-23T08:48:03;24.05;;;11.20;;
40162;SDS011;25881;47.462;19.304;2023-03-23T08:50:28;16.83;;;11.73;;
40162;SDS011;25881;47.462;19.304;2023-03-23T08:52:55;17.40;;;10.65;;
40162;SDS011;25881;47.462;19.304;2023-03-23T08:55:21;13.57;;;9.23;;
40162;SDS011;25881;47.462;19.304;2023-03-23T08:57:47;12.27;;;9.15;;
40162;SDS011;25881;47.462;19.304;2023-03-23T09:00:14;14.98;;;9.10;;
40162;SDS011;25881;47.462;19.304;2023-03-23T09:02:50;12.40;;;7.65;;
40162;SDS011;25881;47.462;19.304;2023-03-23T09:05:16;9.50;;;7.43;;
40162;SDS011;25881;47.462;19.304;2023-03-23T09:07:43;11.90;;;7.70;;
40162;SDS011;25881;47.462;19.304;2023-03-23T09:10:09;12.88;;;8.05;;
40162;SDS011;25881;47.462;19.304;2023-03-23T09:12:34;11.57;;;6.80;;
40162;SDS011;25881;47.462;19.304;2023-03-23T09:15:01;11.45;;;7.60;;
40162;SDS011;25881;47.462;19.304;2023-03-23T09:17:36;10.63;;;7.30;;
40162;SDS011;25881;47.462;19.304;2023-03-23T09:20:02;11.43;;;6.88;;
40162;SDS011;25881;47.462;19.304;2023-03-23T09:22:32;12.52;;;6.90;;
40162;SDS011;25881;47.462;19.304;2023-03-23T09:24:58;8.32;;;5.70;;
40162;SDS011;25881;47.462;19.304;2023-03-23T09:27:23;11.95;;;6.47;;
40162;SDS011;25881;47.462;19.304;2023-03-23T09:29:48;8.73;;;5.63;;
40162;SDS011;25881;47.462;19.304;2023-03-23T09:32:14;8.40;;;5.40;;
40162;SDS011;25881;47.462;19.304;2023-03-23T09:34:39;8.73;;;5.82;;
40162;SDS011;25881;47.462;19.304;2023-03-23T09:37:06;9.00;;;5.65;;
40162;SDS011;25881;47.462;19.304;2023-03-23T09:39:31;8.55;;;4.32;;
40162;SDS011;25881;47.462;19.304;2023-03-23T09:42:31;6.68;;;4.45;;
40162;SDS011;25881;47.462;19.304;2023-03-23T09:45:10;4.35;;;3.40;;
40162;SDS011;25881;47.462;19.304;2023-03-23T09:50:17;9.27;;;3.63;;
40162;SDS011;25881;47.462;19.304;2023-03-23T09:55:09;6.20;;;4.40;;
40162;SDS011;25881;47.462;19.304;2023-03-23T10:02:46;5.28;;;3.35;;
40162;SDS011;25881;47.462;19.304;2023-03-23T10:08:18;5.82;;;2.97;;
40162;SDS011;25881;47.462;19.304;2023-03-23T10:10:45;8.82;;;2.80;;
40162;SDS011;25881;47.462;19.304;2023-03-23T10:15:38;8.55;;;3.95;;
40162;SDS011;25881;47.462;19.304;2023-03-23T10:18:10;9.70;;;3.03;;
40162;SDS011;25881;47.462;19.304;2023-03-23T10:20:41;8.02;;;2.97;;
40162;SDS011;25881;47.462;19.304;2023-03-23T10:26:04;7.15;;;2.90;;
40162;SDS011;25881;47.462;19.304;2023-03-23T10:28:44;9.32;;;2.90;;
40162;SDS011;25881;47.462;19.304;2023-03-23T10:31:31;4.80;;;3.33;;
40162;SDS011;25881;47.462;19.304;2023-03-23T10:33:56;7.22;;;2.97;;
40162;SDS011;25881;47.462;19.304;2023-03-23T10:36:29;3.72;;;2.38;;
40162;SDS011;25881;47.462;19.304;2023-03-23T10:39:02;7.13;;;2.83;;
40162;SDS011;25881;47.462;19.304;2023-03-23T10:41:29;12.10;;;2.88;;
40162;SDS011;25881;47.462;19.304;2023-03-23T10:43:54;5.28;;;3.00;;
40162;SDS011;25881;47.462;19.304;2023-03-23T10:48:46;5.50;;;2.30;;
40162;SDS011;25881;47.462;19.304;2023-03-23T10:53:43;8.20;;;2.30;;
40162;SDS011;25881;47.462;19.304;2023-03-23T10:56:24;7.05;;;2.25;;
40162;SDS011;25881;47.462;19.304;2023-03-23T10:58:50;6.13;;;3.17;;
40162;SDS011;25881;47.462;19.304;2023-03-23T11:01:17;7.95;;;2.97;;
40162;SDS011;25881;47.462;19.304;2023-03-23T11:03:44;7.65;;;2.90;;
40162;SDS011;25881;47.462;19.304;2023-03-23T11:06:10;3.90;;;2.42;;
40162;SDS011;25881;47.462;19.304;2023-03-23T11:11:24;3.42;;;2.08;;
40162;SDS011;25881;47.462;19.304;2023-03-23T11:13:52;5.28;;;1.98;;
40162;SDS011;25881;47.462;19.304;2023-03-23T11:16:28;6.18;;;1.70;;
40162;SDS011;25881;47.462;19.304;2023-03-23T11:18:54;5.40;;;2.00;;
40162;SDS011;25881;47.462;19.304;2023-03-23T11:21:20;5.10;;;2.20;;
40162;SDS011;25881;47.462;19.304;2023-03-23T11:23:50;9.13;;;2.30;;
40162;SDS011;25881;47.462;19.304;2023-03-23T11:28:43;4.90;;;2.27;;
40162;SDS011;25881;47.462;19.304;2023-03-23T11:31:08;4.40;;;2.60;;
40162;SDS011;25881;47.462;19.304;2023-03-23T11:36:06;7.85;;;2.25;;
40162;SDS011;25881;47.462;19.304;2023-03-23T11:38:33;3.03;;;1.70;;
40162;SDS011;25881;47.462;19.304;2023-03-23T11:40:59;3.20;;;2.45;;
40162;SDS011;25881;47.462;19.304;2023-03-23T11:43:25;5.95;;;2.72;;
40162;SDS011;25881;47.462;19.304;2023-03-23T11:51:17;9.20;;;3.13;;
40162;SDS011;25881;47.462;19.304;2023-03-23T11:53:50;10.20;;;3.15;;
40162;SDS011;25881;47.462;19.304;2023-03-23T11:56:25;3.72;;;2.25;;
40162;SDS011;25881;47.462;19.304;2023-03-23T11:58:55;4.78;;;2.20;;
40162;SDS011;25881;47.462;19.304;2023-03-23T12:04:23;5.10;;;2.28;;
40162;SDS011;25881;47.462;19.304;2023-03-23T12:06:54;3.00;;;1.90;;
40162;SDS011;25881;47.462;19.304;2023-03-23T12:38:29;5.72;;;2.50;;
40162;SDS011;25881;47.462;19.304;2023-03-23T12:40:56;5.38;;;2.50;;
40162;SDS011;25881;47.462;19.304;2023-03-23T12:49:00;6.82;;;3.00;;
40162;SDS011;25881;47.462;19.304;2023-03-23T12:54:07;6.93;;;2.92;;
40162;SDS011;25881;47.462;19.304;2023-03-23T13:02:16;5.70;;;2.65;;
40162;SDS011;25881;47.462;19.304;2023-03-23T13:04:45;3.50;;;2.42;;
40162;SDS011;25881;47.462;19.304;2023-03-23T13:07:14;8.20;;;2.80;;
40162;SDS011;25881;47.462;19.304;2023-03-23T13:09:53;5.70;;;2.80;;
40162;SDS011;25881;47.462;19.304;2023-03-23T13:12:21;3.22;;;2.20;;
40162;SDS011;25881;47.462;19.304;2023-03-23T13:14:50;6.43;;;2.55;;
40162;SDS011;25881;47.462;19.304;2023-03-23T13:19:56;3.95;;;2.25;;
40162;SDS011;25881;47.462;19.304;2023-03-23T13:22:42;4.75;;;2.65;;
40162;SDS011;25881;47.462;19.304;2023-03-23T13:25:13;4.47;;;2.88;;
40162;SDS011;25881;47.462;19.304;2023-03-23T13:27:40;4.53;;;2.17;;
40162;SDS011;25881;47.462;19.304;2023-03-23T13:30:17;3.70;;;2.13;;
40162;SDS011;25881;47.462;19.304;2023-03-23T13:32:46;4.05;;;2.40;;
40162;SDS011;25881;47.462;19.304;2023-03-23T13:35:12;5.27;;;2.07;;
40162;SDS011;25881;47.462;19.304;2023-03-23T13:37:41;3.42;;;2.50;;
40162;SDS011;25881;47.462;19.304;2023-03-23T13:42:36;2.83;;;2.15;;
40162;SDS011;25881;47.462;19.304;2023-03-23T13:47:47;5.28;;;2.50;;
40162;SDS011;25881;47.462;19.304;2023-03-23T13:57:37;4.38;;;2.45;;
40162;SDS011;25881;47.462;19.304;2023-03-23T14:00:25;3.60;;;2.38;;
40162;SDS011;25881;47.462;19.304;2023-03-23T14:02:52;5.53;;;2.10;;
40162;SDS011;25881;47.462;19.304;2023-03-23T14:05:29;6.05;;;2.35;;
40162;SDS011;25881;47.462;19.304;2023-03-23T14:07:59;4.10;;;2.20;;
40162;SDS011;25881;47.462;19.304;2023-03-23T14:10:32;5.03;;;2.42;;
40162;SDS011;25881;47.462;19.304;2023-03-23T14:12:58;3.95;;;2.55;;
40162;SDS011;25881;47.462;19.304;2023-03-23T14:15:27;5.40;;;2.20;;
40162;SDS011;25881;47.462;19.304;2023-03-23T14:17:53;3.65;;;1.83;;
40162;SDS011;25881;47.462;19.304;2023-03-23T14:20:21;6.87;;;2.50;;
40162;SDS011;25881;47.462;19.304;2023-03-23T14:22:52;4.90;;;2.20;;
40162;SDS011;25881;47.462;19.304;2023-03-23T14:25:18;4.78;;;2.30;;
40162;SDS011;25881;47.462;19.304;2023-03-23T14:27:45;5.90;;;2.53;;
40162;SDS011;25881;47.462;19.304;2023-03-23T14:30:15;6.65;;;2.75;;
40162;SDS011;25881;47.462;19.304;2023-03-23T14:32:42;11.65;;;2.25;;
40162;SDS011;25881;47.462;19.304;2023-03-23T14:35:30;7.65;;;2.58;;
40162;SDS011;25881;47.462;19.304;2023-03-23T14:37:54;5.55;;;2.40;;
40162;SDS011;25881;47.462;19.304;2023-03-23T14:40:20;5.60;;;2.55;;
40162;SDS011;25881;47.462;19.304;2023-03-23T14:42:46;5.35;;;2.38;;
40162;SDS011;25881;47.462;19.304;2023-03-23T14:45:15;3.92;;;1.90;;
40162;SDS011;25881;47.462;19.304;2023-03-23T14:50:29;9.10;;;2.80;;
40162;SDS011;25881;47.462;19.304;2023-03-23T14:52:59;4.25;;;2.20;;
40162;SDS011;25881;47.462;19.304;2023-03-23T14:55:25;5.30;;;2.78;;
40162;SDS011;25881;47.462;19.304;2023-03-23T14:57:53;9.40;;;2.65;;
40162;SDS011;25881;47.462;19.304;2023-03-23T15:00:23;7.05;;;2.83;;
40162;SDS011;25881;47.462;19.304;2023-03-23T15:02:51;8.00;;;2.50;;
40162;SDS011;25881;47.462;19.304;2023-03-23T15:05:19;5.30;;;2.50;;
40162;SDS011;25881;47.462;19.304;2023-03-23T15:07:50;8.50;;;2.10;;
40162;SDS011;25881;47.462;19.304;2023-03-23T15:10:16;6.05;;;2.50;;
40162;SDS011;25881;47.462;19.304;2023-03-23T15:12:43;3.05;;;2.10;;
40162;SDS011;25881;47.462;19.304;2023-03-23T15:15:18;7.63;;;2.53;;
40162;SDS011;25881;47.462;19.304;2023-03-23T15:17:45;5.85;;;2.28;;
40162;SDS011;25881;47.462;19.304;2023-03-23T15:20:19;13.15;;;2.58;;
40162;SDS011;25881;47.462;19.304;2023-03-23T15:22:46;5.38;;;2.50;;
40162;SDS011;25881;47.462;19.304;2023-03-23T15:25:18;2.95;;;2.08;;
40162;SDS011;25881;47.462;19.304;2023-03-23T15:27:54;7.88;;;2.63;;
40162;SDS011;25881;47.462;19.304;2023-03-23T15:35:15;5.18;;;2.15;;
40162;SDS011;25881;47.462;19.304;2023-03-23T15:37:44;6.50;;;2.45;;
40162;SDS011;25881;47.462;19.304;2023-03-23T15:40:14;5.25;;;2.08;;
40162;SDS011;25881;47.462;19.304;2023-03-23T15:42:40;7.25;;;2.50;;
40162;SDS011;25881;47.462;19.304;2023-03-23T15:47:43;8.68;;;2.33;;
40162;SDS011;25881;47.462;19.304;2023-03-23T15:52:37;4.70;;;2.20;;
40162;SDS011;25881;47.462;19.304;2023-03-23T15:55:03;8.55;;;2.30;;
40162;SDS011;25881;47.462;19.304;2023-03-23T15:57:28;5.65;;;2.13;;
40162;SDS011;25881;47.462;19.304;2023-03-23T15:59:53;8.20;;;1.90;;
40162;SDS011;25881;47.462;19.304;2023-03-23T16:02:20;4.15;;;2.10;;
40162;SDS011;25881;47.462;19.304;2023-03-23T16:04:46;9.18;;;2.40;;
40162;SDS011;25881;47.462;19.304;2023-03-23T16:07:12;8.00;;;2.95;;
40162;SDS011;25881;47.462;19.304;2023-03-23T16:09:38;5.38;;;2.55;;
40162;SDS011;25881;47.462;19.304;2023-03-23T16:12:09;8.13;;;2.60;;
40162;SDS011;25881;47.462;19.304;2023-03-23T16:14:34;8.23;;;2.13;;
40162;SDS011;25881;47.462;19.304;2023-03-23T16:16:59;2.95;;;1.77;;
40162;SDS011;25881;47.462;19.304;2023-03-23T16:19:24;3.27;;;1.87;;
40162;SDS011;25881;47.462;19.304;2023-03-23T16:21:50;8.20;;;2.63;;
40162;SDS011;25881;47.462;19.304;2023-03-23T16:24:15;5.03;;;2.30;;
40162;SDS011;25881;47.462;19.304;2023-03-23T16:26:40;4.67;;;1.97;;
40162;SDS011;25881;47.462;19.304;2023-03-23T16:29:10;3.38;;;1.92;;
40162;SDS011;25881;47.462;19.304;2023-03-23T16:31:35;6.75;;;1.88;;
40162;SDS011;25881;47.462;19.304;2023-03-23T16:34:00;10.50;;;2.40;;
40162;SDS011;25881;47.462;19.304;2023-03-23T16:36:26;4.77;;;1.90;;
40162;SDS011;25881;47.462;19.304;2023-03-23T16:38:51;6.38;;;2.15;;
40162;SDS011;25881;47.462;19.304;2023-03-23T16:41:16;8.15;;;1.80;;